Nearby METAR (Airport) Reports

 

KPRN - Greenville, Alabama, USA
Distance from station: WNW 17mi, 28km
Updated: Sat, 20-Jul-2024 5:11pm CDT
Partly cloudy
Partly cloudy
 Wind from S
Wind: S 9 mph , 15 km/h
Temperature: 81°F , 27°C
Heat Index: 87°F , 31°C
Dew Point: 75°F , 24°C
Humidity: 84%
Barometer: 30.04 inHg , 1017.3 hPa
Clouds: Partly cloudy
Visibility: 10 miles , 16 km
Cloud details: Partly cloudy 1600 ft
Partly cloudy 2100 ft
Partly cloudy 3200 ft
2024/07/20 22:11 KPRN 202211Z AUTO 17008KT 10SM SCT016 SCT021 SCT032 27/24 A3004 RMK AO2 T02670239
KTOI - Troy, Alabama, USA
Distance from station: ENE 21mi, 34km
Updated: Sat, 20-Jul-2024 4:53pm CDT
Few Clouds
Few Clouds
 Wind from S
Wind: S 9 mph , 15 km/h
Temperature: 82°F , 28°C
Heat Index: 89°F , 32°C
Dew Point: 75°F , 24°C
Humidity: 79%
Barometer: 30.06 inHg , 1017.9 hPa
Clouds: Few Clouds
Visibility: 10 miles , 16 km
Cloud details: Few Clouds 1900 ft
Few Clouds 2800 ft
2024/07/20 21:53 KTOI 202153Z AUTO 17008KT 10SM FEW019 FEW028 28/24 A3006 RMK AO2 SLP171 T02780239
K79J - Andalusia/Opp Ar, Alabama, USA
Distance from station: S 29mi, 47km
Updated: Sat, 20-Jul-2024 4:56pm CDT

 
Barometer: 30.06 inHg , 1017.9 hPa
2024/07/20 21:56 K79J 202156Z AUTO A3006 RMK AO2 SLPNO PWINO TSNO $
 
KMGM - Montgomery, Alabama, USA
Distance from station: N 39mi, 63km
Updated: Sat, 20-Jul-2024 4:53pm CDT
Clear
Clear
 Wind from S
Wind: S 7 mph , 11 km/h
Temperature: 82°F , 28°C
Heat Index: 89°F , 32°C
Dew Point: 75°F , 24°C
Humidity: 79%
Barometer: 30.02 inHg , 1016.6 hPa
Clouds: Clear
Visibility: 10 miles , 16 km
2024/07/20 21:53 KMGM 202153Z 17006KT 10SM CLR 28/24 A3002 RMK AO2 SLP161 T02830239
KMXF - Maxwell Afb/Mgm, Alabama, USA
Distance from station: N 44mi, 70km
Updated: Sat, 20-Jul-2024 4:55pm CDT
Few Clouds
Few Clouds
 Wind from S
Wind: S 7 mph , 11 km/h
Temperature: 82°F , 28°C
Heat Index: 89°F , 32°C
Dew Point: 75°F , 24°C
Humidity: 79%
Barometer: 30.00 inHg , 1015.9 hPa
Clouds: Few Clouds
Visibility: 10 miles , 16 km
Cloud details: Few Clouds 2700 ft
2024/07/20 21:55 KMXF 202155Z AUTO 17006KT 10SM FEW027 28/24 A3000 RMK AO2 SLP160 T02840235
KLOR - Lowe Ahp/Ft. Ruc, Alabama, USA
Distance from station: SE 44mi, 71km
Updated: Sat, 20-Jul-2024 4:55pm CDT
Mostly cloudy
Mostly cloudy
 Wind from calm
Wind: Calm
Temperature: 84°F , 29°C
Heat Index: 94°F , 34°C
Dew Point: 77°F , 25°C
Humidity: 79%
Barometer: 30.05 inHg , 1017.6 hPa
Clouds: Mostly cloudy
Visibility: 10 miles , 16 km
Cloud details: Partly cloudy 14000 ft
Mostly cloudy 23000 ft
2024/07/20 21:55 KLOR 202155Z AUTO 00000KT 10SM SCT140 BKN230 29/25 A3005 RMK AO2 SLP157 T02860246
 
KGZH - Evergreen, Alabama, USA
Distance from station: WSW 46mi, 75km
Updated: Sat, 20-Jul-2024 4:53pm CDT
Clear
Clear
 Wind from S
Wind: S 6 mph , 9 km/h
Temperature: 82°F , 28°C
Heat Index: 89°F , 32°C
Dew Point: 75°F , 24°C
Humidity: 79%
Barometer: 30.05 inHg , 1017.6 hPa
Clouds: Clear
Visibility: 10 miles , 16 km
2024/07/20 21:53 KGZH 202153Z AUTO 17005KT 10SM CLR 28/24 A3005 RMK AO2 SLP170 T02830239
K0J4 - Florala Muni, Alabama, USA
Distance from station: S 47mi, 76km
Updated: Sat, 20-Jul-2024 4:58pm CDT
Clear
Clear
 Wind from S
Wind: S 7 mph , 11 km/h
Temperature: 82°F , 28°C
Heat Index: 86°F , 30°C
Dew Point: 72°F , 22°C
Humidity: 70%
Barometer: 30.08 inHg , 1018.6 hPa
Clouds: Clear
Visibility: 10 miles , 16 km
2024/07/20 21:58 K0J4 202158Z AUTO 18006KT 10SM CLR 28/22 A3008 RMK AO2 SLP181 T02830222
KOZR - Ozark/Cairns Aaf, Alabama, USA
Distance from station: SE 49mi, 78km
Updated: Sat, 20-Jul-2024 4:55pm CDT
Few Clouds
Few Clouds
 Wind from SSE
Wind: SSE 3 mph , 6 km/h
Temperature: 82°F , 28°C
Heat Index: 89°F , 32°C
Dew Point: 75°F , 24°C
Humidity: 79%
Barometer: 30.04 inHg , 1017.3 hPa
Clouds: Few Clouds
Visibility: 10 miles , 16 km
Cloud details: Few Clouds 18000 ft
2024/07/20 21:55 KOZR 202155Z AUTO 15003KT 10SM FEW180 28/24 A3004 RMK AO2 DZB10E33 SLP171 P0000 T02820235
 
KHEY - Ft Rucker/Hanche, Alabama, USA
Distance from station: ESE 49mi, 79km
Updated: Sat, 20-Jul-2024 4:55pm CDT
Mostly cloudy
Mostly cloudy
 Wind from S
Wind: S 8 mph , 13 km/h
Temperature: 82°F , 28°C
Heat Index: 89°F , 32°C
Dew Point: 75°F , 24°C
Humidity: 79%
Barometer: 30.02 inHg , 1016.6 hPa
Clouds: Mostly cloudy
Visibility: 10 miles , 16 km
Cloud details: Partly cloudy 1600 ft
Partly cloudy 2200 ft
Mostly cloudy 15000 ft
2024/07/20 21:55 KHEY 202155Z AUTO 17007KT 10SM SCT016 SCT022 BKN150 28/24 A3002 RMK AO2 SLP165 T02820242
KDHN - Dothan, Alabama, USA
Distance from station: ESE 61mi, 97km
Updated: Sat, 20-Jul-2024 4:53pm CDT
Few Clouds
Few Clouds
 Wind from S
Wind: S 6 mph , 9 km/h
Temperature: 84°F , 29°C
Heat Index: 92°F , 33°C
Dew Point: 75°F , 24°C
Humidity: 74%
Barometer: 30.10 inHg , 1019.3 hPa
Clouds: Few Clouds
Visibility: 10 miles , 16 km
Cloud details: Few Clouds 1500 ft
2024/07/20 21:53 KDHN 202153Z 17005KT 10SM FEW015 29/24 A3010 RMK AO1 SLP185 T02890244
KCEW - Crestview, Florida, USA
Distance from station: S 66mi, 107km
Updated: Sat, 20-Jul-2024 4:53pm CDT
Clear
Clear
 Wind from calm
Wind: Calm
Temperature: 82°F , 28°C
Heat Index: 89°F , 32°C
Dew Point: 75°F , 24°C
Humidity: 79%
Barometer: 30.07 inHg , 1018.3 hPa
Clouds: Clear
Visibility: 10 miles , 16 km
2024/07/20 21:53 KCEW 202153Z AUTO 00000KT 10SM CLR 28/24 A3007 RMK AO2 SLP180 T02780239
 
KEUF - Eufaula, Alabama, USA
Distance from station: ENE 73mi, 118km
Updated: Sat, 20-Jul-2024 3:58pm CDT
NOT Current
Mostly cloudy
Mostly cloudy
 Wind from NNE
Wind: NNE 6 mph , 9 km/h
Temperature: 79°F , 26°C
Dew Point: 75°F , 24°C
Humidity: 89%
Barometer: 30.09 inHg , 1019 hPa
Clouds: Mostly cloudy
Visibility: 10 miles , 16 km
Cloud details: Few Clouds 2100 ft
Partly cloudy 3000 ft
Mostly cloudy 4000 ft
2024/07/20 20:58 KEUF 202058Z AUTO 03005KT 10SM FEW021 SCT030 BKN040 26/24 A3009 RMK AO2 RAE44 SLP186 P0027 60043 T02610239 52007
KJKA - Gulf Shores, Alabama, USA
Distance from station: SSW 132mi, 212km
Updated: Sat, 20-Jul-2024 4:56pm CDT
Clear
Clear
 Wind from SSE
Wind: SSE 8 mph , 13 km/h, Gust: 14 mph , 22 km/h
Temperature: 86°F , 30°C
Heat Index: 97°F , 36°C
Dew Point: 77°F , 25°C
Humidity: 75%
Barometer: 30.02 inHg , 1016.6 hPa
Clouds: Clear
Visibility: 10 miles , 16 km
2024/07/20 21:56 KJKA 202156Z 16007G12KT 10SM CLR 30/25 A3002
KLSF - Ft Benning/Colum, Georgia, USA
Distance from station: SNE 89mi, 143km
Updated: Sat, 20-Jul-2024 5:10pm CDT
Mostly cloudy
Mostly cloudy
 Wind from ESE
Wind: ESE 9 mph , 15 km/h
Temperature: 81°F , 27°C
Heat Index: 87°F , 31°C
Dew Point: 75°F , 24°C
Humidity: 84%
Barometer: 30.03 inHg , 1016.9 hPa
Clouds: Mostly cloudy
Visibility: 10 miles , 16 km
Cloud details: Mostly cloudy 700 ft
Mostly cloudy 17000 ft
2024/07/20 22:10 KLSF 202210Z AUTO 11008KT 10SM BKN007 BKN170 27/24 A3003 RMK AO2 CIG 007V180 BKN007 V SCT SLP172 RVRNO VISNO RWY33 $
 
KMOB - Mobile/Bates, Alabama, USA
Distance from station: SW 125mi, 202km
Updated: Sat, 20-Jul-2024 4:56pm CDT
Mostly cloudy
Mostly cloudy
 Wind from SSW
Wind: SSW 7 mph , 11 km/h
Temperature: 88°F , 31°C
Heat Index: 98°F , 37°C
Dew Point: 75°F , 24°C
Humidity: 66%
Barometer: 30.04 inHg , 1017.3 hPa
Clouds: Mostly cloudy
Visibility: 10 miles , 16 km
Cloud details: Few Clouds 2400 ft
Partly cloudy 6500 ft
Mostly cloudy 20000 ft
2024/07/20 21:56 KMOB 202156Z 20006KT 10SM FEW024 SCT065 BKN200 31/24 A3004 RMK AO2 SLP168 T03060244
KNMM - Meridian Nas, Mississippi, USA
Distance from station: WNW 151mi, 243km
Updated: Sat, 20-Jul-2024 4:56pm CDT
Mostly cloudy
Mostly cloudy
 Wind from W
Wind: W 5 mph , 7 km/h
Temperature: 90°F , 32°C
Heat Index: 99°F , 37°C
Dew Point: 73°F , 23°C
Humidity: 59%
Barometer: 30.01 inHg , 1016.3 hPa
Clouds: Mostly cloudy
Visibility: 10 miles , 16 km
Cloud details: Mostly cloudy 3400 ft
Mostly cloudy 4400 ft
Mostly cloudy 6500 ft
2024/07/20 21:56 KNMM 202156Z AUTO 27004KT 10SM BKN034 BKN044 BKN065 32/23 A3001 RMK AO2 SLP169 T03170228
KQHY - Hurlbert (Ft Walton Bch), Florida, USA
Distance from station: S 94mi, 151km
Updated: Sat, 20-Jul-2024 4:55pm CDT
Overcast
Overcast
 Wind from calm
Wind: Calm
Temperature: 84°F , 29°C
Heat Index: 92°F , 33°C
Dew Point: 75°F , 24°C
Humidity: 74%
Barometer: 30.06 inHg , 1017.9 hPa
Clouds: Overcast
Visibility: 10 miles , 16 km
Cloud details: Overcast 23000 ft
2024/07/20 21:55 KQHY 202155Z AUTO 00000KT 10SM OVC230 29/24 A3006 RMK AO2 LTG DSNT SW SLP187 T02850242
 
KTCL - Tuscaloosa, Alabama, USA
Distance from station: NNW 129mi, 207km
Updated: Sat, 20-Jul-2024 4:53pm CDT
Few Clouds
Few Clouds
 Wind from WSW
Wind: WSW 6 mph , 9 km/h
Temperature: 84°F , 29°C
Heat Index: 92°F , 33°C
Dew Point: 75°F , 24°C
Humidity: 74%
Barometer: 30.01 inHg , 1016.3 hPa
Clouds: Few Clouds
Visibility: 10 miles , 16 km
Cloud details: Few Clouds 3500 ft
2024/07/20 21:53 KTCL 202153Z AUTO 25005KT 10SM FEW035 29/24 A3001 RMK AO2 SLP158 T02940239
KECP - Panama City, Florida, USA
Distance from station: SSE 122mi, 196km
Updated: Sat, 20-Jul-2024 5:00pm CDT
Mostly cloudy
Mostly cloudy
 Wind from S
Wind: S 8 mph , 13 km/h
Temperature: 88°F , 31°C
Heat Index: 100°F , 38°C
Dew Point: 77°F , 25°C
Humidity: 70%
Barometer: 30.05 inHg , 1017.6 hPa
Clouds: Mostly cloudy
Visibility: 10 miles , 16 km
Cloud details: Mostly cloudy 3100 ft
Mostly cloudy 3800 ft
Mostly cloudy 6000 ft
2024/07/20 22:00 KECP 202200Z 17007KT 10SM BKN031 BKN038 BKN060 31/25 A3005 RMK AO1 T03060250
KCBM - Columbus Afb, Mississippi, USA
Distance from station: NW 175mi, 282km
Updated: Sat, 20-Jul-2024 4:55pm CDT
Clear
Clear
 Wind from WNW
Wind: WNW 3 mph , 6 km/h
Temperature: 88°F , 31°C
Heat Index: 96°F , 36°C
Dew Point: 73°F , 23°C
Humidity: 62%
Barometer: 29.96 inHg , 1014.6 hPa
Clouds: Clear
Visibility: 10 miles , 16 km
2024/07/20 21:55 KCBM 202155Z AUTO 29003KT 10SM CLR 31/23 A2996 RMK AO2 SLP146 T03120225 $
 
KBHM - Birmingham, Alabama, USA
Distance from station: N 132mi, 212km
Updated: Sat, 20-Jul-2024 4:53pm CDT
Mostly cloudy
Mostly cloudy
 Wind from WSW
Wind: WSW 7 mph , 11 km/h
Temperature: 84°F , 29°C
Heat Index: 89°F , 32°C
Dew Point: 72°F , 22°C
Humidity: 66%
Barometer: 30.04 inHg , 1017.3 hPa
Clouds: Mostly cloudy
Visibility: 10 miles , 16 km
Cloud details: Few Clouds 2700 ft
Partly cloudy 5000 ft
Mostly cloudy 7000 ft
Mostly cloudy 25000 ft
2024/07/20 21:53 KBHM 202153Z 24006KT 10SM FEW027 SCT050 BKN070 BKN250 29/22 A3004 RMK AO2 LTG DSNT NE AND E SLP163 T02940217
KAAF - Apalachicola, Florida, USA
Distance from station: SSE 156mi, 250km
Updated: Sat, 20-Jul-2024 5:11pm CDT
Mostly cloudy
Mostly cloudy
 Wind from SSW
Wind: SSW 10 mph , 17 km/h
Temperature: 84°F , 29°C
Heat Index: 96°F , 36°C
Dew Point: 79°F , 26°C
Humidity: 84%
Barometer: 30.06 inHg , 1017.9 hPa
Clouds: Mostly cloudy
Visibility: 10 miles , 16 km
Cloud details: Mostly cloudy 2000 ft
Mostly cloudy 2800 ft
2024/07/20 22:11 KAAF 202211Z AUTO 21009KT 10SM BKN020 BKN028 29/26 A3006 RMK AO2 LTG DSNT W-N T02940261
KATL - Atlanta, Georgia, USA
Distance from station: NE 177mi, 287km
Updated: Sat, 20-Jul-2024 4:52pm CDT
Mostly cloudy
Mostly cloudy
 Wind from SW
Wind: SW 9 mph , 15 km/h
Temperature: 81°F , 27°C
Heat Index: 86°F , 30°C
Dew Point: 73°F , 23°C
Humidity: 79%
Barometer: 30.08 inHg , 1018.6 hPa
Clouds: Mostly cloudy
Visibility: 10 miles , 16 km
Cloud details: Few Clouds 1800 ft
Partly cloudy 18000 ft
Mostly cloudy 22000 ft
2024/07/20 21:52 KATL 202152Z 22008KT 10SM FEW018TCU SCT180 BKN220 27/23 A3008 RMK AO2 SLP176 CB DSNT NE NW TCU NW-NE T02720228 $
 
KGPT - Gulfport, Mississippi, USA
Distance from station: SW 192mi, 309km
Updated: Sat, 20-Jul-2024 4:53pm CDT
Clear
Clear
 Wind from S
Wind: S 6 mph , 9 km/h
Temperature: 90°F , 32°C
Heat Index: 104°F , 40°C
Dew Point: 77°F , 25°C
Humidity: 67%
Barometer: 30.00 inHg , 1015.9 hPa
Clouds: Clear
Visibility: 10 miles , 16 km
2024/07/20 21:53 KGPT 202153Z 17005KT 10SM CLR 32/25 A3000 RMK AO2 LTG DSNT S SLP159 T03220250
KNEW - New Orleans/Lake, Louisiana, USA
Distance from station: SW 255mi, 410km
Updated: Sat, 20-Jul-2024 4:53pm CDT
Clear
Clear
 Wind from calm
Wind: Calm
Temperature: 90°F , 32°C
Heat Index: 101°F , 38°C
Dew Point: 75°F , 24°C
Humidity: 63%
Barometer: 30.00 inHg , 1015.9 hPa
Clouds: Clear
Visibility: 10 miles , 16 km
2024/07/20 21:53 KNEW 202153Z 00000KT 10SM CLR 32/24 A3000 RMK AO2 SLP151 T03170239
KP92 - Salt Point, Louisiana, USA
Distance from station: SW 347mi, 559km
Updated: Wed, 19-Jun-2024 8:59am CDT
NOT Current

 Wind from E
Wind: E 8 mph , 13 km/h, Gust: 18 mph , 30 km/h
Temperature: 82°F , 28°C
Heat Index: 89°F , 32°C
Dew Point: 75°F , 24°C
Humidity: 79%
Barometer: 29.91 inHg , 1012.9 hPa
2024/06/19 13:59 KP92 191359Z AUTO 10007G16KT 060V130 28/24 A2991 RMK AO1 SLP126 T02830244